Terminal Aerodrome Forecast
Issued by NWS

Home | Current Version | Previous Version | Text Only | Print | Product List | Glossary On
Versions: 1 2 3 4 5 6 7 8 9 10 11 12 13 14
000
FTUS43 KOAX 140500
TAFCDR
TAF
KCDR 140529Z 1406/1506 VRB05KT P6SM FEW150
     FM141900 03008G15KT P6SM SKC
     FM150000 10007KT P6SM SKC=

USA.gov is the U.S. government's official web portal to all federal, state and local government web resources and services.